sensor_id;sensor_type;location;lat;lon;timestamp;pressure;altitude;pressure_sealevel;temperature;humidity
32237;BME280;18726;44.732;10.550;2023-03-13T00:00:12;101306.66;;;8.89;100.00
32237;BME280;18726;44.732;10.550;2023-03-13T00:03:17;101307.16;;;8.91;100.00
32237;BME280;18726;44.732;10.550;2023-03-13T00:06:21;101314.44;;;9.25;100.00
32237;BME280;18726;44.732;10.550;2023-03-13T00:09:25;101315.75;;;8.75;100.00
32237;BME280;18726;44.732;10.550;2023-03-13T00:12:28;101310.63;;;8.48;100.00
32237;BME280;18726;44.732;10.550;2023-03-13T00:15:32;101312.44;;;8.22;100.00
32237;BME280;18726;44.732;10.550;2023-03-13T00:18:36;101306.56;;;7.80;100.00
32237;BME280;18726;44.732;10.550;2023-03-13T00:21:40;101312.66;;;7.55;100.00
32237;BME280;18726;44.732;10.550;2023-03-13T00:24:44;101306.31;;;7.28;100.00
32237;BME280;18726;44.732;10.550;2023-03-13T00:27:48;101311.00;;;7.14;100.00
32237;BME280;18726;44.732;10.550;2023-03-13T00:30:58;101311.78;;;7.15;100.00
32237;BME280;18726;44.732;10.550;2023-03-13T00:34:03;101315.84;;;7.88;100.00
32237;BME280;18726;44.732;10.550;2023-03-13T00:37:07;101304.91;;;8.58;100.00
32237;BME280;18726;44.732;10.550;2023-03-13T00:40:10;101301.00;;;8.25;100.00
32237;BME280;18726;44.732;10.550;2023-03-13T00:43:14;101298.00;;;7.87;100.00
32237;BME280;18726;44.732;10.550;2023-03-13T00:46:18;101300.41;;;7.49;100.00
32237;BME280;18726;44.732;10.550;2023-03-13T00:49:23;101298.38;;;7.32;100.00
32237;BME280;18726;44.732;10.550;2023-03-13T00:52:26;101307.91;;;7.29;100.00
32237;BME280;18726;44.732;10.550;2023-03-13T00:55:30;101304.91;;;7.08;100.00
32237;BME280;18726;44.732;10.550;2023-03-13T00:58:34;101308.22;;;7.05;100.00
32237;BME280;18726;44.732;10.550;2023-03-13T01:01:38;101303.31;;;7.07;100.00
32237;BME280;18726;44.732;10.550;2023-03-13T01:04:41;101306.63;;;7.04;100.00
32237;BME280;18726;44.732;10.550;2023-03-13T01:07:45;101305.72;;;7.09;100.00
32237;BME280;18726;44.732;10.550;2023-03-13T01:10:48;101291.16;;;7.19;100.00
32237;BME280;18726;44.732;10.550;2023-03-13T01:13:54;101292.31;;;7.26;100.00
32237;BME280;18726;44.732;10.550;2023-03-13T01:16:58;101286.41;;;7.55;100.00
32237;BME280;18726;44.732;10.550;2023-03-13T01:20:01;101276.38;;;7.78;100.00
32237;BME280;18726;44.732;10.550;2023-03-13T01:23:05;101273.78;;;7.73;100.00
32237;BME280;18726;44.732;10.550;2023-03-13T01:26:09;101271.91;;;7.42;100.00
32237;BME280;18726;44.732;10.550;2023-03-13T01:29:12;101276.09;;;7.26;100.00
32237;BME280;18726;44.732;10.550;2023-03-13T01:32:15;101278.94;;;7.21;100.00
32237;BME280;18726;44.732;10.550;2023-03-13T01:35:19;101282.56;;;7.17;100.00
32237;BME280;18726;44.732;10.550;2023-03-13T01:38:22;101267.41;;;7.07;100.00
32237;BME280;18726;44.732;10.550;2023-03-13T01:41:26;101262.63;;;7.04;100.00
32237;BME280;18726;44.732;10.550;2023-03-13T01:44:29;101264.81;;;7.02;100.00
32237;BME280;18726;44.732;10.550;2023-03-13T01:47:50;101273.03;;;6.97;100.00
32237;BME280;18726;44.732;10.550;2023-03-13T01:51:00;101266.06;;;7.18;100.00
32237;BME280;18726;44.732;10.550;2023-03-13T01:54:07;101258.47;;;7.60;100.00
32237;BME280;18726;44.732;10.550;2023-03-13T02:00:19;101253.25;;;8.98;100.00
32237;BME280;18726;44.732;10.550;2023-03-13T02:03:24;101240.19;;;9.00;100.00
32237;BME280;18726;44.732;10.550;2023-03-13T02:06:29;101237.19;;;8.75;100.00
32237;BME280;18726;44.732;10.550;2023-03-13T02:09:34;101243.19;;;9.07;100.00
32237;BME280;18726;44.732;10.550;2023-03-13T02:12:38;101246.91;;;9.49;100.00
32237;BME280;18726;44.732;10.550;2023-03-13T02:15:42;101247.16;;;9.65;100.00
32237;BME280;18726;44.732;10.550;2023-03-13T02:18:47;101247.63;;;9.67;100.00
32237;BME280;18726;44.732;10.550;2023-03-13T02:22:02;101245.03;;;9.79;100.00
32237;BME280;18726;44.732;10.550;2023-03-13T02:28:30;101271.00;;;9.51;100.00
32237;BME280;18726;44.732;10.550;2023-03-13T02:31:37;101267.19;;;9.43;100.00
32237;BME280;18726;44.732;10.550;2023-03-13T02:34:41;101266.78;;;9.24;100.00
32237;BME280;18726;44.732;10.550;2023-03-13T02:37:47;101263.69;;;9.34;100.00
32237;BME280;18726;44.732;10.550;2023-03-13T02:40:55;101252.66;;;8.84;100.00
32237;BME280;18726;44.732;10.550;2023-03-13T02:44:00;101258.34;;;8.30;100.00
32237;BME280;18726;44.732;10.550;2023-03-13T02:47:04;101257.03;;;8.10;100.00
32237;BME280;18726;44.732;10.550;2023-03-13T02:50:08;101263.97;;;8.51;100.00
32237;BME280;18726;44.732;10.550;2023-03-13T02:53:13;101250.72;;;8.41;100.00
32237;BME280;18726;44.732;10.550;2023-03-13T02:56:17;101258.72;;;7.89;100.00
32237;BME280;18726;44.732;10.550;2023-03-13T02:59:23;101244.84;;;7.82;100.00
32237;BME280;18726;44.732;10.550;2023-03-13T03:02:27;101248.88;;;7.93;100.00
32237;BME280;18726;44.732;10.550;2023-03-13T03:05:31;101249.25;;;7.61;100.00
32237;BME280;18726;44.732;10.550;2023-03-13T03:08:34;101255.25;;;7.97;100.00
32237;BME280;18726;44.732;10.550;2023-03-13T03:11:39;101262.53;;;8.62;100.00
32237;BME280;18726;44.732;10.550;2023-03-13T03:14:47;101252.00;;;8.69;100.00
32237;BME280;18726;44.732;10.550;2023-03-13T03:17:52;101266.50;;;8.73;100.00
32237;BME280;18726;44.732;10.550;2023-03-13T03:20:55;101265.53;;;8.95;100.00
32237;BME280;18726;44.732;10.550;2023-03-13T03:23:58;101264.59;;;8.91;100.00
32237;BME280;18726;44.732;10.550;2023-03-13T03:27:01;101262.16;;;9.07;100.00
32237;BME280;18726;44.732;10.550;2023-03-13T03:30:11;101254.00;;;9.24;100.00
32237;BME280;18726;44.732;10.550;2023-03-13T03:33:16;101250.53;;;8.20;100.00
32237;BME280;18726;44.732;10.550;2023-03-13T03:36:20;101243.75;;;7.74;100.00
32237;BME280;18726;44.732;10.550;2023-03-13T03:39:25;101245.25;;;8.06;100.00
32237;BME280;18726;44.732;10.550;2023-03-13T03:42:30;101248.84;;;7.85;100.00
32237;BME280;18726;44.732;10.550;2023-03-13T03:45:33;101257.41;;;7.38;100.00
32237;BME280;18726;44.732;10.550;2023-03-13T03:48:38;101250.16;;;7.17;100.00
32237;BME280;18726;44.732;10.550;2023-03-13T03:51:43;101252.38;;;7.15;100.00
32237;BME280;18726;44.732;10.550;2023-03-13T03:54:47;101261.28;;;7.55;100.00
32237;BME280;18726;44.732;10.550;2023-03-13T03:57:52;101242.88;;;8.05;100.00
32237;BME280;18726;44.732;10.550;2023-03-13T04:01:12;101241.44;;;8.07;100.00
32237;BME280;18726;44.732;10.550;2023-03-13T04:04:15;101259.97;;;7.74;100.00
32237;BME280;18726;44.732;10.550;2023-03-13T04:07:22;101267.53;;;7.64;100.00
32237;BME280;18726;44.732;10.550;2023-03-13T04:10:27;101286.09;;;7.26;100.00
32237;BME280;18726;44.732;10.550;2023-03-13T04:13:31;101292.91;;;7.23;100.00
32237;BME280;18726;44.732;10.550;2023-03-13T04:16:35;101293.03;;;7.40;100.00
32237;BME280;18726;44.732;10.550;2023-03-13T04:19:38;101288.19;;;7.60;100.00
32237;BME280;18726;44.732;10.550;2023-03-13T04:22:42;101285.63;;;7.55;100.00
32237;BME280;18726;44.732;10.550;2023-03-13T04:25:46;101285.28;;;7.87;100.00
32237;BME280;18726;44.732;10.550;2023-03-13T04:28:51;101278.44;;;8.38;100.00
32237;BME280;18726;44.732;10.550;2023-03-13T04:32:00;101280.50;;;8.32;100.00
32237;BME280;18726;44.732;10.550;2023-03-13T04:35:26;101291.47;;;7.79;100.00
32237;BME280;18726;44.732;10.550;2023-03-13T04:38:42;101309.84;;;7.99;100.00
32237;BME280;18726;44.732;10.550;2023-03-13T04:41:57;101309.13;;;7.76;100.00
32237;BME280;18726;44.732;10.550;2023-03-13T04:45:14;101306.25;;;7.82;100.00
32237;BME280;18726;44.732;10.550;2023-03-13T04:48:40;101301.44;;;8.18;100.00
32237;BME280;18726;44.732;10.550;2023-03-13T04:52:10;101306.25;;;7.73;100.00
32237;BME280;18726;44.732;10.550;2023-03-13T04:55:34;101312.81;;;7.50;100.00
32237;BME280;18726;44.732;10.550;2023-03-13T04:58:58;101308.53;;;7.88;100.00
32237;BME280;18726;44.732;10.550;2023-03-13T05:02:21;101317.16;;;8.47;100.00
32237;BME280;18726;44.732;10.550;2023-03-13T05:05:37;101321.50;;;8.17;100.00
32237;BME280;18726;44.732;10.550;2023-03-13T05:09:01;101331.47;;;7.99;100.00
32237;BME280;18726;44.732;10.550;2023-03-13T05:12:27;101330.19;;;7.97;100.00
32237;BME280;18726;44.732;10.550;2023-03-13T05:15:40;101334.69;;;8.01;100.00
32237;BME280;18726;44.732;10.550;2023-03-13T05:19:10;101326.88;;;8.48;100.00
32237;BME280;18726;44.732;10.550;2023-03-13T05:22:22;101330.34;;;8.40;100.00
32237;BME280;18726;44.732;10.550;2023-03-13T05:25:45;101326.56;;;8.10;100.00
32237;BME280;18726;44.732;10.550;2023-03-13T05:29:18;101316.84;;;8.57;100.00
32237;BME280;18726;44.732;10.550;2023-03-13T05:32:40;101321.94;;;8.67;100.00
32237;BME280;18726;44.732;10.550;2023-03-13T05:36:03;101322.78;;;8.20;100.00
32237;BME280;18726;44.732;10.550;2023-03-13T05:39:19;101324.00;;;8.36;100.00
32237;BME280;18726;44.732;10.550;2023-03-13T05:42:55;101327.53;;;9.14;100.00
32237;BME280;18726;44.732;10.550;2023-03-13T05:46:05;101338.97;;;9.28;100.00
32237;BME280;18726;44.732;10.550;2023-03-13T05:49:24;101333.22;;;9.47;100.00
32237;BME280;18726;44.732;10.550;2023-03-13T05:52:42;101333.72;;;9.40;100.00
32237;BME280;18726;44.732;10.550;2023-03-13T05:56:05;101345.66;;;9.39;100.00
32237;BME280;18726;44.732;10.550;2023-03-13T05:59:32;101351.53;;;10.05;100.00
32237;BME280;18726;44.732;10.550;2023-03-13T06:03:01;101358.00;;;10.30;100.00
32237;BME280;18726;44.732;10.550;2023-03-13T06:06:11;101366.25;;;10.04;100.00
32237;BME280;18726;44.732;10.550;2023-03-13T06:09:35;101374.59;;;9.82;100.00
32237;BME280;18726;44.732;10.550;2023-03-13T06:12:39;101371.44;;;9.80;100.00
32237;BME280;18726;44.732;10.550;2023-03-13T06:15:52;101367.63;;;9.72;100.00
32237;BME280;18726;44.732;10.550;2023-03-13T06:19:14;101378.16;;;9.57;100.00
32237;BME280;18726;44.732;10.550;2023-03-13T06:22:17;101377.09;;;9.49;100.00
32237;BME280;18726;44.732;10.550;2023-03-13T06:25:22;101373.25;;;9.24;100.00
32237;BME280;18726;44.732;10.550;2023-03-13T06:28:27;101366.53;;;9.56;100.00
32237;BME280;18726;44.732;10.550;2023-03-13T06:31:31;101353.19;;;9.89;100.00
32237;BME280;18726;44.732;10.550;2023-03-13T06:34:35;101358.63;;;9.89;100.00
32237;BME280;18726;44.732;10.550;2023-03-13T06:37:38;101360.50;;;9.97;100.00
32237;BME280;18726;44.732;10.550;2023-03-13T06:40:41;101368.41;;;10.20;100.00
32237;BME280;18726;44.732;10.550;2023-03-13T06:43:45;101363.28;;;10.27;100.00
32237;BME280;18726;44.732;10.550;2023-03-13T06:46:48;101357.06;;;10.76;100.00
32237;BME280;18726;44.732;10.550;2023-03-13T06:49:51;101356.06;;;11.68;100.00
32237;BME280;18726;44.732;10.550;2023-03-13T06:52:54;101358.88;;;12.29;100.00
32237;BME280;18726;44.732;10.550;2023-03-13T06:55:59;101364.31;;;12.65;100.00
32237;BME280;18726;44.732;10.550;2023-03-13T06:59:03;101377.00;;;13.69;100.00
32237;BME280;18726;44.732;10.550;2023-03-13T07:02:07;101392.53;;;14.28;100.00
32237;BME280;18726;44.732;10.550;2023-03-13T07:05:11;101391.22;;;14.38;100.00
32237;BME280;18726;44.732;10.550;2023-03-13T07:21:24;101414.44;;;15.33;100.00
32237;BME280;18726;44.732;10.550;2023-03-13T07:24:28;101404.78;;;16.01;100.00
32237;BME280;18726;44.732;10.550;2023-03-13T07:27:31;101407.59;;;17.40;100.00
32237;BME280;18726;44.732;10.550;2023-03-13T07:30:34;101405.13;;;19.18;89.94
32237;BME280;18726;44.732;10.550;2023-03-13T07:33:37;101405.97;;;21.25;74.26
32237;BME280;18726;44.732;10.550;2023-03-13T07:36:41;101393.81;;;20.98;64.86
32237;BME280;18726;44.732;10.550;2023-03-13T07:39:45;101374.41;;;21.12;62.82
32237;BME280;18726;44.732;10.550;2023-03-13T07:42:48;101377.28;;;20.83;63.29
32237;BME280;18726;44.732;10.550;2023-03-13T07:48:55;101393.91;;;20.62;64.13
32237;BME280;18726;44.732;10.550;2023-03-13T07:51:58;101394.69;;;19.95;71.40
32237;BME280;18726;44.732;10.550;2023-03-13T07:55:02;101402.19;;;19.98;74.60
32237;BME280;18726;44.732;10.550;2023-03-13T07:58:05;101414.13;;;19.05;71.74
32237;BME280;18726;44.732;10.550;2023-03-13T08:01:16;101414.44;;;18.89;75.39
32237;BME280;18726;44.732;10.550;2023-03-13T08:04:20;101417.59;;;20.38;68.22
32237;BME280;18726;44.732;10.550;2023-03-13T08:07:23;101409.59;;;22.77;64.58
32237;BME280;18726;44.732;10.550;2023-03-13T08:10:27;101408.91;;;23.38;52.80
32237;BME280;18726;44.732;10.550;2023-03-13T08:13:31;101417.44;;;24.04;50.95
32237;BME280;18726;44.732;10.550;2023-03-13T08:16:34;101403.09;;;24.56;49.91
32237;BME280;18726;44.732;10.550;2023-03-13T08:19:38;101402.31;;;24.99;46.72
32237;BME280;18726;44.732;10.550;2023-03-13T08:22:41;101405.69;;;23.39;50.64
32237;BME280;18726;44.732;10.550;2023-03-13T08:25:44;101399.63;;;22.83;51.57
32237;BME280;18726;44.732;10.550;2023-03-13T08:28:50;101398.97;;;22.28;56.27
32237;BME280;18726;44.732;10.550;2023-03-13T08:31:54;101405.97;;;23.18;51.83
32237;BME280;18726;44.732;10.550;2023-03-13T08:34:58;101400.81;;;25.50;52.48
32237;BME280;18726;44.732;10.550;2023-03-13T08:38:01;101411.16;;;27.75;44.34
32237;BME280;18726;44.732;10.550;2023-03-13T08:41:05;101426.78;;;27.73;40.16
32237;BME280;18726;44.732;10.550;2023-03-13T08:44:12;101415.66;;;29.02;40.22
32237;BME280;18726;44.732;10.550;2023-03-13T08:47:16;101410.25;;;27.40;41.00
32237;BME280;18726;44.732;10.550;2023-03-13T08:50:22;101426.84;;;30.62;37.22
32237;BME280;18726;44.732;10.550;2023-03-13T08:53:26;101433.25;;;32.64;33.81
32237;BME280;18726;44.732;10.550;2023-03-13T08:56:30;101423.25;;;33.02;33.71
32237;BME280;18726;44.732;10.550;2023-03-13T08:59:33;101410.28;;;31.10;34.48
32237;BME280;18726;44.732;10.550;2023-03-13T09:02:37;101410.19;;;31.46;36.32
32237;BME280;18726;44.732;10.550;2023-03-13T09:05:40;101399.00;;;29.29;38.15
32237;BME280;18726;44.732;10.550;2023-03-13T09:08:44;101398.63;;;29.71;37.62
32237;BME280;18726;44.732;10.550;2023-03-13T09:11:47;101390.44;;;28.23;37.97
32237;BME280;18726;44.732;10.550;2023-03-13T09:14:51;101396.13;;;26.32;41.54
32237;BME280;18726;44.732;10.550;2023-03-13T09:17:54;101404.50;;;28.33;41.68
32237;BME280;18726;44.732;10.550;2023-03-13T09:20:57;101399.66;;;27.86;39.74
32237;BME280;18726;44.732;10.550;2023-03-13T09:24:00;101381.81;;;28.18;42.26
32237;BME280;18726;44.732;10.550;2023-03-13T09:27:04;101375.72;;;26.51;41.32
32237;BME280;18726;44.732;10.550;2023-03-13T09:30:08;101380.28;;;23.71;48.70
32237;BME280;18726;44.732;10.550;2023-03-13T09:33:12;101383.72;;;26.49;46.43
32237;BME280;18726;44.732;10.550;2023-03-13T09:36:15;101380.69;;;25.26;49.12
32237;BME280;18726;44.732;10.550;2023-03-13T09:39:19;101376.34;;;26.42;47.09
32237;BME280;18726;44.732;10.550;2023-03-13T09:42:40;101374.13;;;25.36;47.50
32237;BME280;18726;44.732;10.550;2023-03-13T09:45:46;101371.56;;;22.44;55.38
32237;BME280;18726;44.732;10.550;2023-03-13T09:49:04;101369.91;;;22.09;66.90
32237;BME280;18726;44.732;10.550;2023-03-13T09:52:13;101350.97;;;22.00;61.00
32237;BME280;18726;44.732;10.550;2023-03-13T09:55:30;101354.13;;;19.85;73.04
32237;BME280;18726;44.732;10.550;2023-03-13T09:58:35;101355.19;;;18.47;80.31
32237;BME280;18726;44.732;10.550;2023-03-13T10:01:39;101365.53;;;18.65;83.40
32237;BME280;18726;44.732;10.550;2023-03-13T10:04:45;101370.81;;;18.95;82.33
32237;BME280;18726;44.732;10.550;2023-03-13T10:07:54;101368.97;;;19.31;84.26
32237;BME280;18726;44.732;10.550;2023-03-13T10:14:05;101371.00;;;18.61;85.54
32237;BME280;18726;44.732;10.550;2023-03-13T10:20:36;101360.44;;;19.82;83.85
32237;BME280;18726;44.732;10.550;2023-03-13T10:23:45;101356.41;;;19.47;80.48
32237;BME280;18726;44.732;10.550;2023-03-13T10:26:50;101353.66;;;19.44;80.12
32237;BME280;18726;44.732;10.550;2023-03-13T10:29:53;101357.16;;;19.30;80.05
32237;BME280;18726;44.732;10.550;2023-03-13T10:33:14;101345.28;;;19.05;82.33
32237;BME280;18726;44.732;10.550;2023-03-13T10:36:20;101334.47;;;18.64;85.45
32237;BME280;18726;44.732;10.550;2023-03-13T10:39:26;101335.31;;;18.13;89.92
32237;BME280;18726;44.732;10.550;2023-03-13T10:42:31;101323.25;;;17.81;90.04
32237;BME280;18726;44.732;10.550;2023-03-13T10:45:37;101317.53;;;17.56;96.78
32237;BME280;18726;44.732;10.550;2023-03-13T10:48:40;101320.06;;;17.75;95.66
32237;BME280;18726;44.732;10.550;2023-03-13T10:51:51;101329.22;;;18.45;95.03
32237;BME280;18726;44.732;10.550;2023-03-13T10:54:59;101332.59;;;18.86;84.36
32237;BME280;18726;44.732;10.550;2023-03-13T10:58:03;101333.59;;;20.53;83.05
32237;BME280;18726;44.732;10.550;2023-03-13T11:01:08;101331.13;;;21.61;74.20
32237;BME280;18726;44.732;10.550;2023-03-13T11:04:25;101320.00;;;22.19;70.39
32237;BME280;18726;44.732;10.550;2023-03-13T11:07:34;101315.50;;;20.13;75.62
32237;BME280;18726;44.732;10.550;2023-03-13T11:10:50;101321.56;;;21.06;76.40
32237;BME280;18726;44.732;10.550;2023-03-13T11:13:53;101325.75;;;19.95;75.64
32237;BME280;18726;44.732;10.550;2023-03-13T11:26:36;101306.63;;;18.76;82.77
32237;BME280;18726;44.732;10.550;2023-03-13T11:29:43;101309.22;;;19.60;81.05
32237;BME280;18726;44.732;10.550;2023-03-13T11:32:51;101297.03;;;19.61;82.38
32237;BME280;18726;44.732;10.550;2023-03-13T11:52:17;101269.31;;;20.56;80.80
32237;BME280;18726;44.732;10.550;2023-03-13T11:55:33;101263.84;;;21.26;76.13
32237;BME280;18726;44.732;10.550;2023-03-13T12:02:13;101250.91;;;20.00;74.58
32237;BME280;18726;44.732;10.550;2023-03-13T12:05:18;101244.56;;;19.00;81.19
32237;BME280;18726;44.732;10.550;2023-03-13T12:11:34;101258.81;;;19.66;86.60
32237;BME280;18726;44.732;10.550;2023-03-13T12:14:48;101243.72;;;20.35;83.75
32237;BME280;18726;44.732;10.550;2023-03-13T12:24:10;101209.91;;;20.09;77.55
32237;BME280;18726;44.732;10.550;2023-03-13T12:27:36;101208.75;;;19.11;80.49
32237;BME280;18726;44.732;10.550;2023-03-13T12:30:44;101202.09;;;19.05;93.17
32237;BME280;18726;44.732;10.550;2023-03-13T12:33:53;101189.47;;;18.97;82.60
32237;BME280;18726;44.732;10.550;2023-03-13T12:40:58;101172.78;;;20.32;85.85
32237;BME280;18726;44.732;10.550;2023-03-13T12:44:03;101178.78;;;20.12;78.15
32237;BME280;18726;44.732;10.550;2023-03-13T12:47:29;101176.09;;;19.84;79.33
32237;BME280;18726;44.732;10.550;2023-03-13T13:00:24;101142.69;;;19.00;82.75
32237;BME280;18726;44.732;10.550;2023-03-13T13:03:30;101124.16;;;19.40;89.67
32237;BME280;18726;44.732;10.550;2023-03-13T13:06:54;101120.25;;;19.16;85.72
32237;BME280;18726;44.732;10.550;2023-03-13T13:09:59;101112.78;;;19.13;79.16
32237;BME280;18726;44.732;10.550;2023-03-13T13:16:17;101106.38;;;18.41;85.66
32237;BME280;18726;44.732;10.550;2023-03-13T13:25:41;101087.84;;;18.20;86.25
32237;BME280;18726;44.732;10.550;2023-03-13T13:28:44;101087.81;;;18.06;87.62
32237;BME280;18726;44.732;10.550;2023-03-13T13:34:53;101075.84;;;17.70;89.14
32237;BME280;18726;44.732;10.550;2023-03-13T13:44:24;101073.69;;;18.15;87.94
32237;BME280;18726;44.732;10.550;2023-03-13T13:47:28;101080.84;;;18.41;88.90
32237;BME280;18726;44.732;10.550;2023-03-13T13:50:33;101081.09;;;18.00;88.16
32237;BME280;18726;44.732;10.550;2023-03-13T13:53:58;101080.84;;;18.51;87.23
32237;BME280;18726;44.732;10.550;2023-03-13T13:57:03;101083.28;;;18.74;87.08
32237;BME280;18726;44.732;10.550;2023-03-13T14:03:17;101084.06;;;18.89;82.13
32237;BME280;18726;44.732;10.550;2023-03-13T14:06:27;101079.72;;;19.23;82.43
32237;BME280;18726;44.732;10.550;2023-03-13T14:09:41;101090.25;;;19.82;80.59
32237;BME280;18726;44.732;10.550;2023-03-13T14:12:50;101086.44;;;19.01;81.92
32237;BME280;18726;44.732;10.550;2023-03-13T14:15:54;101084.03;;;18.61;79.65
32237;BME280;18726;44.732;10.550;2023-03-13T14:18:57;101077.78;;;18.74;86.96
32237;BME280;18726;44.732;10.550;2023-03-13T14:22:02;101072.25;;;18.78;79.63
32237;BME280;18726;44.732;10.550;2023-03-13T14:25:05;101068.31;;;19.25;79.27
32237;BME280;18726;44.732;10.550;2023-03-13T14:28:22;101065.19;;;18.84;79.14
32237;BME280;18726;44.732;10.550;2023-03-13T14:31:28;101053.72;;;18.57;84.90
32237;BME280;18726;44.732;10.550;2023-03-13T14:34:32;101062.34;;;18.31;84.38
32237;BME280;18726;44.732;10.550;2023-03-13T14:37:40;101050.91;;;18.21;85.16
32237;BME280;18726;44.732;10.550;2023-03-13T14:40:44;101061.16;;;18.32;84.19
32237;BME280;18726;44.732;10.550;2023-03-13T14:43:48;101060.34;;;18.24;84.57
32237;BME280;18726;44.732;10.550;2023-03-13T14:46:58;101062.78;;;18.47;83.12
32237;BME280;18726;44.732;10.550;2023-03-13T14:50:03;101056.44;;;18.29;85.65
32237;BME280;18726;44.732;10.550;2023-03-13T14:53:11;101049.38;;;18.49;88.56
32237;BME280;18726;44.732;10.550;2023-03-13T14:56:16;101045.47;;;18.57;80.88
32237;BME280;18726;44.732;10.550;2023-03-13T14:59:24;101039.25;;;18.74;83.57
32237;BME280;18726;44.732;10.550;2023-03-13T15:02:30;101034.47;;;18.57;81.32
32237;BME280;18726;44.732;10.550;2023-03-13T15:05:34;101026.66;;;18.70;85.34
32237;BME280;18726;44.732;10.550;2023-03-13T15:08:39;101032.91;;;19.20;80.18
32237;BME280;18726;44.732;10.550;2023-03-13T15:11:51;101021.81;;;19.45;81.99
32237;BME280;18726;44.732;10.550;2023-03-13T15:14:55;101018.72;;;19.29;78.15
32237;BME280;18726;44.732;10.550;2023-03-13T15:17:59;101006.16;;;18.56;81.13
32237;BME280;18726;44.732;10.550;2023-03-13T15:24:14;100999.50;;;18.89;83.89
32237;BME280;18726;44.732;10.550;2023-03-13T15:27:18;100994.03;;;18.75;82.75
32237;BME280;18726;44.732;10.550;2023-03-13T15:30:22;100997.53;;;18.54;84.34
32237;BME280;18726;44.732;10.550;2023-03-13T15:33:26;101003.41;;;18.39;87.05
32237;BME280;18726;44.732;10.550;2023-03-13T15:36:31;101007.34;;;18.34;89.79
32237;BME280;18726;44.732;10.550;2023-03-13T15:39:34;100994.38;;;18.38;92.78
32237;BME280;18726;44.732;10.550;2023-03-13T15:42:37;100977.44;;;18.08;93.28
32237;BME280;18726;44.732;10.550;2023-03-13T15:45:41;100987.84;;;17.52;94.01
32237;BME280;18726;44.732;10.550;2023-03-13T15:48:45;100977.19;;;17.40;100.00
32237;BME280;18726;44.732;10.550;2023-03-13T15:51:49;100977.47;;;17.17;100.00
32237;BME280;18726;44.732;10.550;2023-03-13T15:54:52;100968.88;;;17.26;100.00
32237;BME280;18726;44.732;10.550;2023-03-13T15:57:56;100968.44;;;17.17;100.00
32237;BME280;18726;44.732;10.550;2023-03-13T16:01:00;100964.69;;;16.81;100.00
32237;BME280;18726;44.732;10.550;2023-03-13T16:04:03;100963.06;;;16.76;100.00
32237;BME280;18726;44.732;10.550;2023-03-13T16:07:11;100969.72;;;16.28;100.00
32237;BME280;18726;44.732;10.550;2023-03-13T16:10:16;100964.97;;;16.25;100.00
32237;BME280;18726;44.732;10.550;2023-03-13T16:13:20;100958.88;;;16.42;100.00
32237;BME280;18726;44.732;10.550;2023-03-13T16:16:27;100959.91;;;16.27;100.00
32237;BME280;18726;44.732;10.550;2023-03-13T16:19:31;100947.78;;;16.28;100.00
32237;BME280;18726;44.732;10.550;2023-03-13T16:22:35;100951.78;;;16.37;100.00
32237;BME280;18726;44.732;10.550;2023-03-13T16:25:38;100952.66;;;16.45;100.00
32237;BME280;18726;44.732;10.550;2023-03-13T16:28:42;100953.03;;;16.47;100.00
32237;BME280;18726;44.732;10.550;2023-03-13T16:31:45;100949.50;;;16.46;100.00
32237;BME280;18726;44.732;10.550;2023-03-13T16:34:49;100942.19;;;16.13;100.00
32237;BME280;18726;44.732;10.550;2023-03-13T16:37:52;100944.38;;;15.97;100.00
32237;BME280;18726;44.732;10.550;2023-03-13T16:40:56;100939.59;;;15.87;100.00
32237;BME280;18726;44.732;10.550;2023-03-13T16:44:00;100935.28;;;15.86;100.00
32237;BME280;18726;44.732;10.550;2023-03-13T16:50:36;100933.28;;;15.83;100.00
32237;BME280;18726;44.732;10.550;2023-03-13T16:53:40;100928.00;;;15.67;100.00
32237;BME280;18726;44.732;10.550;2023-03-13T16:56:44;100918.16;;;15.63;100.00
32237;BME280;18726;44.732;10.550;2023-03-13T16:59:47;100914.50;;;15.51;100.00
32237;BME280;18726;44.732;10.550;2023-03-13T17:02:50;100913.69;;;15.47;100.00
32237;BME280;18726;44.732;10.550;2023-03-13T17:05:53;100906.16;;;15.41;100.00
32237;BME280;18726;44.732;10.550;2023-03-13T17:08:57;100908.06;;;15.37;100.00
32237;BME280;18726;44.732;10.550;2023-03-13T17:12:01;100900.19;;;15.32;100.00
32237;BME280;18726;44.732;10.550;2023-03-13T17:15:06;100914.75;;;15.39;100.00
32237;BME280;18726;44.732;10.550;2023-03-13T17:18:10;100906.88;;;15.34;100.00
32237;BME280;18726;44.732;10.550;2023-03-13T17:21:18;100920.97;;;15.36;100.00
32237;BME280;18726;44.732;10.550;2023-03-13T17:24:22;100911.63;;;15.41;100.00
32237;BME280;18726;44.732;10.550;2023-03-13T17:27:29;100908.56;;;15.46;100.00
32237;BME280;18726;44.732;10.550;2023-03-13T17:30:34;100908.53;;;15.42;100.00
32237;BME280;18726;44.732;10.550;2023-03-13T17:33:37;100907.38;;;15.43;100.00
32237;BME280;18726;44.732;10.550;2023-03-13T17:36:42;100908.19;;;15.47;100.00
32237;BME280;18726;44.732;10.550;2023-03-13T17:39:47;100908.75;;;15.57;100.00
32237;BME280;18726;44.732;10.550;2023-03-13T17:42:51;100913.16;;;15.68;100.00
32237;BME280;18726;44.732;10.550;2023-03-13T17:45:55;100902.66;;;15.74;100.00
32237;BME280;18726;44.732;10.550;2023-03-13T17:48:58;100901.50;;;15.75;100.00
32237;BME280;18726;44.732;10.550;2023-03-13T17:52:02;100881.16;;;15.76;100.00